Time;durP1;ratioP1;P1;durP2;ratioP2;P2;SDS_P1;SDS_P2;PMS_P1;PMS_P2;Temp;Humidity;BMP_temperature;BMP_pressure;BME280_temperature;BME280_humidity;BME280_pressure;Samples;Min_cycle;Max_cycle;Signal;HPM_P1;HPM_P2
2022/09/16 00:00:47;;;;;;;0.40;0.40;;;;;;;16.50;94.29;94878.78;4377075;32;20272;-59
2022/09/16 00:03:24;;;;;;;1.10;1.10;;;;;;;16.44;94.39;94888.19;4366465;32;20219;-59
2022/09/16 00:05:52;;;;;;;1.27;1.17;;;;;;;16.32;92.60;94882.88;4390216;32;20251;-60
2022/09/16 00:08:20;;;;;;;0.67;0.67;;;;;;;16.22;92.70;94877.22;4376407;32;20303;-59
2022/09/16 00:10:48;;;;;;;1.13;1.13;;;;;;;16.32;94.66;94869.50;4385087;32;20202;-60
2022/09/16 00:13:16;;;;;;;1.10;1.10;;;;;;;16.22;93.89;94867.28;4380169;32;20231;-59
2022/09/16 00:15:49;;;;;;;1.00;0.87;;;;;;;16.32;94.94;94869.50;4374225;32;20219;-59
2022/09/16 00:18:17;;;;;;;0.80;0.80;;;;;;;16.30;95.19;94866.38;4383666;32;20212;-60
2022/09/16 00:20:50;;;;;;;1.00;1.00;;;;;;;16.30;94.79;94870.94;4387313;32;20191;-59
2022/09/16 00:23:18;;;;;;;1.37;1.37;;;;;;;16.26;93.48;94862.81;4359301;32;20203;-59
2022/09/16 00:25:57;;;;;;;2.77;1.07;;;;;;;16.01;93.26;94862.09;4407656;32;20253;-59
2022/09/16 00:28:24;;;;;;;1.37;1.10;;;;;;;16.01;94.12;94858.66;4382891;32;20330;-59
2022/09/16 00:30:51;;;;;;;1.60;1.33;;;;;;;16.27;94.91;94848.31;4382069;32;20255;-59
2022/09/16 00:33:20;;;;;;;1.23;1.23;;;;;;;16.24;93.67;94850.88;4363063;32;20228;-59
2022/09/16 00:35:47;;;;;;;0.80;0.80;;;;;;;16.33;93.41;94841.59;4398960;32;20184;-60
2022/09/16 00:38:14;;;;;;;1.20;1.20;;;;;;;16.29;93.80;94843.41;4374334;32;20225;-59
2022/09/16 00:40:56;;;;;;;0.50;0.50;;;;;;;16.31;94.07;94841.16;4383807;32;20272;-59
2022/09/16 00:43:23;;;;;;;1.27;1.27;;;;;;;16.15;92.65;94840.34;4368355;32;20184;-59
2022/09/16 00:45:59;;;;;;;2.70;0.90;;;;;;;16.33;94.46;94835.47;4378349;32;20196;-59
2022/09/16 00:48:57;;;;;;;2.57;0.87;;;;;;;16.12;95.71;94841.78;4393462;32;20328;-59
2022/09/16 00:51:24;;;;;;;3.50;1.07;;;;;;;16.24;95.50;94849.00;4385440;32;20269;-59
2022/09/16 00:53:55;;;;;;;1.17;1.07;;;;;;;16.15;93.77;94859.06;4399885;32;20191;-60
2022/09/16 00:56:25;;;;;;;0.80;0.80;;;;;;;16.23;94.35;94858.13;4385129;32;20231;-59
2022/09/16 00:59:02;;;;;;;0.67;0.67;;;;;;;16.24;94.65;94854.34;4384174;32;20247;-58
2022/09/16 01:01:30;;;;;;;1.40;1.30;;;;;;;16.29;95.67;94851.44;4378362;32;20240;-59
2022/09/16 01:04:13;;;;;;;0.93;0.93;;;;;;;16.23;95.28;94852.78;4394282;32;20295;-59
2022/09/16 01:06:43;;;;;;;0.50;0.50;;;;;;;16.05;94.32;94856.84;4396608;32;20191;-58
2022/09/16 01:09:09;;;;;;;1.33;1.33;;;;;;;15.98;95.49;94867.38;4385161;32;20203;-58
2022/09/16 01:11:37;;;;;;;0.53;0.53;;;;;;;15.93;95.24;94860.34;4375478;32;20192;-58
2022/09/16 01:17:22;;;;;;;0.50;0.50;;;;;;;16.22;96.30;94853.12;4399345;32;20199;-59
2022/09/16 01:20:25;;;;;;;0.67;0.67;;;;;;;16.00;94.62;94855.19;4392479;32;20215;-59
2022/09/16 01:23:28;;;;;;;1.53;1.20;;;;;;;16.00;94.64;94849.09;4386726;32;20319;-58
2022/09/16 01:26:29;;;;;;;2.30;0.80;;;;;;;15.99;95.22;94836.81;4401811;32;20282;-59
2022/09/16 01:29:32;;;;;;;0.60;0.60;;;;;;;16.02;94.91;94838.81;4397182;32;20286;-59
2022/09/16 01:32:30;;;;;;;0.57;0.57;;;;;;;16.01;94.99;94839.91;4361827;32;20188;-59
2022/09/16 01:35:47;;;;;;;0.60;0.60;;;;;;;16.00;95.96;94843.75;4361726;32;20204;-59
2022/09/16 01:38:51;;;;;;;0.60;0.60;;;;;;;16.07;94.78;94843.91;4331452;32;20248;-61
2022/09/16 01:41:45;;;;;;;0.83;0.83;;;;;;;16.04;94.56;94842.69;4361383;32;20196;-59
2022/09/16 01:44:30;;;;;;;0.90;0.90;;;;;;;16.10;95.92;94840.56;4389432;32;20195;-59
2022/09/16 01:47:19;;;;;;;0.53;0.53;;;;;;;16.08;94.96;94840.13;4389249;32;20259;-59
2022/09/16 01:50:10;;;;;;;1.27;1.13;;;;;;;16.25;95.29;94831.03;4388860;32;20195;-58
2022/09/16 01:52:55;;;;;;;0.63;0.63;;;;;;;15.96;93.93;94835.59;4346997;32;20188;-59
2022/09/16 01:55:50;;;;;;;2.97;1.17;;;;;;;16.08;95.02;94846.25;4396547;32;20333;-59
2022/09/16 01:58:44;;;;;;;1.40;1.30;;;;;;;16.18;94.62;94847.69;4306906;32;20185;-59
2022/09/16 02:01:22;;;;;;;1.50;1.40;;;;;;;16.01;92.71;94840.69;4362259;32;20192;-58
2022/09/16 02:03:57;;;;;;;1.87;1.43;;;;;;;16.06;95.36;94843.16;4375905;32;20309;-58
2022/09/16 02:06:27;;;;;;;0.97;0.97;;;;;;;16.08;95.80;94846.25;4400541;32;20368;-58
2022/09/16 02:09:10;;;;;;;1.07;1.07;;;;;;;15.90;94.95;94839.63;4376166;32;20281;-59
2022/09/16 02:11:39;;;;;;;0.87;0.87;;;;;;;16.11;95.79;94844.81;4375772;32;20187;-59
2022/09/16 02:14:27;;;;;;;1.13;1.07;;;;;;;15.95;94.57;94852.00;4398054;32;20177;-58
2022/09/16 02:17:11;;;;;;;1.20;1.20;;;;;;;15.96;94.79;94848.19;4394571;32;20275;-58
2022/09/16 02:20:11;;;;;;;0.90;0.90;;;;;;;16.08;95.06;94850.84;4387119;32;20183;-58
2022/09/16 02:22:49;;;;;;;0.70;0.70;;;;;;;15.86;93.29;94851.34;4392834;32;20196;-58
2022/09/16 02:25:18;;;;;;;0.63;0.63;;;;;;;15.92;94.71;94850.78;4381159;32;20184;-58
2022/09/16 02:27:49;;;;;;;0.67;0.67;;;;;;;15.89;92.97;94856.00;4413177;32;20186;-58
2022/09/16 02:30:23;;;;;;;1.60;1.13;;;;;;;15.75;93.32;94856.37;4355267;32;20192;-58
2022/09/16 02:33:23;;;;;;;3.40;1.40;;;;;;;15.66;91.45;94856.50;4400345;32;20298;-58
2022/09/16 02:35:56;;;;;;;0.60;0.60;;;;;;;15.70;92.65;94860.06;4367841;32;20180;-58
2022/09/16 02:38:39;;;;;;;0.87;0.87;;;;;;;15.78;93.66;94853.81;4386122;32;20267;-58
2022/09/16 02:41:05;;;;;;;1.67;1.57;;;;;;;15.69;92.37;94845.12;4374471;32;20207;-61
2022/09/16 02:43:33;;;;;;;0.77;0.77;;;;;;;15.85;94.69;94849.78;4384613;32;20195;-58
2022/09/16 02:46:11;;;;;;;1.23;0.83;;;;;;;15.81;92.92;94842.41;4405650;32;20188;-58
2022/09/16 02:49:05;;;;;;;1.57;1.47;;;;;;;15.67;93.37;94852.72;4384899;32;20207;-58
2022/09/16 02:52:09;;;;;;;0.87;0.87;;;;;;;15.80;94.61;94854.22;4366937;32;20211;-58
2022/09/16 02:55:04;;;;;;;0.60;0.60;;;;;;;15.84;93.65;94851.66;4377005;32;20188;-59
2022/09/16 02:57:31;;;;;;;0.60;0.60;;;;;;;15.72;90.84;94847.13;4380037;32;20190;-58
2022/09/16 02:59:57;;;;;;;0.53;0.53;;;;;;;15.57;92.08;94842.50;4398001;32;20196;-59
2022/09/16 03:02:24;;;;;;;0.80;0.80;;;;;;;15.74;93.48;94844.12;4393819;32;20330;-59
2022/09/16 03:04:51;;;;;;;1.40;1.30;;;;;;;15.78;94.13;94837.00;4394661;32;20197;-58
2022/09/16 03:07:19;;;;;;;0.87;0.87;;;;;;;15.73;92.61;94839.91;4382865;32;20184;-58
2022/09/16 03:09:48;;;;;;;1.13;1.13;;;;;;;15.58;91.21;94840.59;4397947;32;20206;-58
2022/09/16 03:12:30;;;;;;;0.50;0.50;;;;;;;15.70;92.77;94832.53;4404217;32;20205;-58
2022/09/16 03:15:31;;;;;;;6.60;1.80;;;;;;;15.82;93.61;94832.50;4411295;32;20266;-58
2022/09/16 03:18:38;;;;;;;1.10;1.10;;;;;;;15.86;92.51;94835.28;4379670;32;20207;-58
2022/09/16 03:21:48;;;;;;;0.90;0.90;;;;;;;15.84;93.94;94837.50;4283772;33;20206;-58
2022/09/16 03:24:29;;;;;;;1.03;0.80;;;;;;;15.59;91.14;94826.09;4354793;32;20238;-58
2022/09/16 03:27:10;;;;;;;1.27;1.17;;;;;;;15.51;91.63;94827.75;4399469;32;20188;-58
2022/09/16 03:30:10;;;;;;;1.20;1.10;;;;;;;15.61;91.13;94816.59;4385650;32;20187;-61
2022/09/16 03:33:08;;;;;;;1.20;1.20;;;;;;;15.47;91.40;94821.50;4329779;32;20203;-58
2022/09/16 03:35:42;;;;;;;1.70;1.57;;;;;;;15.48;91.94;94818.50;4377301;32;20189;-58
2022/09/16 03:38:11;;;;;;;1.00;1.00;;;;;;;15.35;91.36;94819.63;4341587;32;20256;-59
2022/09/16 03:40:48;;;;;;;1.43;1.40;;;;;;;15.45;93.47;94818.37;4362005;32;20185;-58
2022/09/16 03:43:22;;;;;;;1.43;1.33;;;;;;;15.42;93.37;94809.16;4376443;32;20229;-59
2022/09/16 03:45:48;;;;;;;1.30;1.30;;;;;;;15.60;93.62;94815.06;4388120;32;20253;-58
2022/09/16 03:48:14;;;;;;;14.17;1.53;;;;;;;15.65;94.53;94817.50;4402349;32;20187;-58
2022/09/16 03:50:40;;;;;;;1.00;1.00;;;;;;;15.64;92.41;94815.16;4367718;32;20188;-58
2022/09/16 03:53:07;;;;;;;1.13;1.07;;;;;;;15.68;93.14;94816.06;4369364;32;20206;-61
2022/09/16 03:55:35;;;;;;;1.37;1.37;;;;;;;15.67;93.68;94811.81;4381986;32;20251;-59
2022/09/16 03:58:02;;;;;;;1.30;1.23;;;;;;;15.54;90.60;94807.59;4394899;32;20196;-58
2022/09/16 04:00:31;;;;;;;1.30;1.30;;;;;;;15.61;92.11;94805.13;4386914;32;20189;-58
2022/09/16 04:02:59;;;;;;;1.10;1.10;;;;;;;15.59;91.59;94802.78;4409115;32;20210;-58
2022/09/16 04:05:26;;;;;;;1.60;0.97;;;;;;;15.59;92.18;94802.78;4390459;32;20192;-58
2022/09/16 04:07:55;;;;;;;1.90;1.43;;;;;;;15.58;93.54;94806.62;4367245;32;20262;-58
2022/09/16 04:10:21;;;;;;;2.43;1.00;;;;;;;15.62;92.67;94812.81;4382021;32;20187;-58
2022/09/16 04:12:48;;;;;;;1.17;1.10;;;;;;;15.61;92.06;94805.91;4361541;32;20204;-58
2022/09/16 04:15:15;;;;;;;0.93;0.93;;;;;;;15.67;93.07;94809.13;4371705;32;20212;-58
2022/09/16 04:17:42;;;;;;;0.87;0.87;;;;;;;15.53;92.67;94814.06;4395454;32;20203;-58
2022/09/16 04:20:09;;;;;;;1.80;1.70;;;;;;;15.69;93.88;94806.91;4393287;32;20234;-58
2022/09/16 04:22:36;;;;;;;2.17;1.87;;;;;;;15.60;91.65;94808.91;4397960;32;20198;-66
2022/09/16 04:25:07;;;;;;;1.37;1.37;;;;;;;15.59;91.77;94812.75;4402796;32;20181;-61
2022/09/16 04:27:33;;;;;;;1.20;1.10;;;;;;;15.74;93.28;94818.16;4393560;32;20188;-59
2022/09/16 04:29:59;;;;;;;1.60;1.50;;;;;;;15.71;92.84;94818.84;4405106;32;20252;-58
2022/09/16 04:32:27;;;;;;;1.20;1.20;;;;;;;15.64;91.00;94815.94;4358336;32;20218;-58
2022/09/16 04:34:54;;;;;;;3.93;1.70;;;;;;;15.65;92.87;94822.84;4361959;32;20274;-59
2022/09/16 04:37:22;;;;;;;1.20;1.20;;;;;;;15.66;91.83;94823.63;4393099;32;20192;-59
2022/09/16 04:39:48;;;;;;;1.43;1.13;;;;;;;15.74;93.07;94823.50;4382129;32;20233;-58
2022/09/16 04:42:13;;;;;;;0.90;0.90;;;;;;;15.73;91.11;94821.16;4378088;32;20188;-59
2022/09/16 04:44:39;;;;;;;4.33;1.53;;;;;;;15.82;93.00;94821.81;4374527;32;20188;-59
2022/09/16 04:47:04;;;;;;;1.73;1.63;;;;;;;15.64;91.30;94826.63;4390200;32;20188;-59
2022/09/16 04:49:31;;;;;;;1.37;1.30;;;;;;;15.68;93.33;94827.53;4400977;32;20180;-59
2022/09/16 04:51:58;;;;;;;3.23;1.20;;;;;;;15.50;90.16;94826.19;4355250;32;20346;-59
2022/09/16 04:54:25;;;;;;;2.03;1.73;;;;;;;15.57;90.54;94829.12;4357061;32;20211;-59
2022/09/16 04:56:56;;;;;;;1.47;1.47;;;;;;;15.45;93.92;94832.53;4380845;32;20274;-59
2022/09/16 04:59:24;;;;;;;1.67;1.67;;;;;;;15.47;92.08;94826.84;4379058;32;20188;-59
2022/09/16 05:01:51;;;;;;;1.77;1.67;;;;;;;15.40;91.20;94831.97;4390309;32;20202;-59
2022/09/16 05:04:17;;;;;;;1.20;1.20;;;;;;;15.40;91.75;94831.97;4389328;32;20210;-59
2022/09/16 05:06:43;;;;;;;1.40;1.40;;;;;;;15.33;92.74;94837.12;4384701;32;20188;-60
2022/09/16 05:09:10;;;;;;;2.47;2.27;;;;;;;15.34;93.28;94839.47;4383253;32;20235;-59
2022/09/16 05:11:38;;;;;;;2.10;1.90;;;;;;;15.42;93.56;94835.88;4386391;32;20199;-59
2022/09/16 05:14:07;;;;;;;1.37;1.37;;;;;;;15.44;91.23;94839.00;4377991;32;20177;-59
2022/09/16 05:16:34;;;;;;;1.57;1.47;;;;;;;15.56;92.58;94838.25;4389838;32;20274;-60
2022/09/16 05:19:04;;;;;;;0.93;0.93;;;;;;;15.56;93.70;94840.94;4397212;32;20175;-59
2022/09/16 05:21:34;;;;;;;0.90;0.90;;;;;;;15.56;92.91;94840.94;4384935;32;20186;-59
2022/09/16 05:24:06;;;;;;;23.23;1.80;;;;;;;15.66;92.92;94845.03;4342130;32;20192;-59
2022/09/16 05:26:41;;;;;;;1.40;1.40;;;;;;;15.60;91.28;94838.34;4351297;32;20196;-58
2022/09/16 05:29:15;;;;;;;2.03;1.93;;;;;;;15.67;91.17;94839.34;4351231;32;20203;-58
2022/09/16 05:31:43;;;;;;;1.33;1.33;;;;;;;15.56;89.79;94838.25;4391182;32;20184;-59
2022/09/16 05:34:20;;;;;;;10.17;2.60;;;;;;;15.57;91.42;94845.16;4391810;32;20265;-58
2022/09/16 05:36:49;;;;;;;1.73;1.63;;;;;;;15.51;90.12;94843.78;4349187;32;20193;-59
2022/09/16 05:39:21;;;;;;;1.93;1.87;;;;;;;15.49;91.27;94838.00;4373327;32;20218;-59
2022/09/16 05:41:58;;;;;;;1.83;1.73;;;;;;;15.56;92.39;94835.56;4384341;32;20214;-59
2022/09/16 05:44:25;;;;;;;1.00;1.00;;;;;;;15.42;90.21;94833.19;4394666;32;20245;-59
2022/09/16 05:46:55;;;;;;;2.17;1.97;;;;;;;15.69;92.38;94829.09;4358616;32;20335;-59
2022/09/16 05:49:22;;;;;;;1.07;1.07;;;;;;;15.64;92.01;94831.19;4388874;32;20187;-59
2022/09/16 05:51:49;;;;;;;2.03;1.83;;;;;;;15.73;92.98;94829.19;4325983;32;20202;-59
2022/09/16 05:54:17;;;;;;;2.50;2.30;;;;;;;15.72;91.16;94824.97;4367115;32;20188;-59
2022/09/16 05:56:54;;;;;;;2.87;2.73;;;;;;;15.69;90.40;94818.37;4371438;32;20192;-58
2022/09/16 05:59:21;;;;;;;2.00;1.90;;;;;;;15.70;89.57;94833.31;4396690;32;20207;-59
2022/09/16 06:01:51;;;;;;;2.60;2.40;;;;;;;15.74;90.11;94825.41;4381378;32;20191;-58
2022/09/16 06:04:21;;;;;;;1.73;1.60;;;;;;;15.66;90.17;94828.97;4382370;32;20210;-58
2022/09/16 06:06:46;;;;;;;1.80;1.70;;;;;;;15.68;89.49;94830.19;4380741;32;20220;-59
2022/09/16 06:09:20;;;;;;;2.60;1.63;;;;;;;15.64;89.31;94821.28;4368830;32;20203;-59
2022/09/16 06:12:00;;;;;;;3.47;1.60;;;;;;;15.73;89.04;94823.84;4318924;32;20275;-59
2022/09/16 06:14:25;;;;;;;2.20;2.00;;;;;;;15.55;89.26;94820.63;4374790;32;20187;-58
2022/09/16 06:16:55;;;;;;;2.83;2.63;;;;;;;15.77;90.82;94830.88;4377769;32;20240;-58
2022/09/16 06:19:21;;;;;;;2.57;2.47;;;;;;;15.53;87.38;94824.75;4381265;32;20244;-58
2022/09/16 06:21:51;;;;;;;2.53;2.20;;;;;;;15.53;88.51;94824.75;4386669;32;20297;-58
2022/09/16 06:24:19;;;;;;;4.47;2.70;;;;;;;15.22;89.29;94825.31;4392587;32;20187;-58
2022/09/16 06:26:50;;;;;;;2.47;2.37;;;;;;;15.45;90.03;94818.37;4395126;32;20196;-58
2022/09/16 06:29:16;;;;;;;1.50;1.50;;;;;;;15.26;89.48;94823.53;4361914;32;20191;-58
2022/09/16 06:31:44;;;;;;;2.03;1.93;;;;;;;15.11;89.30;94831.13;4389859;32;20184;-58
2022/09/16 06:34:17;;;;;;;2.20;2.10;;;;;;;15.15;90.12;94823.22;4391609;32;20249;-60
2022/09/16 06:36:44;;;;;;;2.47;2.37;;;;;;;15.30;89.05;94817.19;4386716;32;20199;-61
2022/09/16 06:39:12;;;;;;;2.57;2.17;;;;;;;15.33;91.34;94826.44;4394986;32;20262;-58
2022/09/16 06:41:38;;;;;;;2.93;2.73;;;;;;;15.25;91.66;94828.09;4350759;32;20197;-60
2022/09/16 06:44:04;;;;;;;3.17;2.43;;;;;;;15.39;89.75;94822.41;4383500;32;20206;-58
2022/09/16 06:46:31;;;;;;;2.53;2.40;;;;;;;15.42;90.64;94829.75;4398196;32;20192;-58
2022/09/16 06:48:58;;;;;;;1.83;1.77;;;;;;;15.42;90.41;94827.06;4409558;32;20267;-58
2022/09/16 06:51:27;;;;;;;1.90;1.83;;;;;;;15.43;89.84;94826.75;4401246;32;20218;-58
2022/09/16 06:54:07;;;;;;;2.97;2.83;;;;;;;15.06;89.42;94819.84;4395271;32;20289;-58
2022/09/16 06:56:36;;;;;;;1.67;1.57;;;;;;;15.28;91.07;94832.78;4398125;32;20220;-63
2022/09/16 06:59:03;;;;;;;1.63;1.63;;;;;;;15.39;90.81;94827.75;4403182;32;20206;-59
2022/09/16 07:01:30;;;;;;;2.50;2.30;;;;;;;15.36;89.26;94831.13;4382610;32;20259;-59
2022/09/16 07:04:01;;;;;;;2.00;1.90;;;;;;;15.36;88.67;94823.09;4363257;32;20259;-62
2022/09/16 07:06:29;;;;;;;2.03;1.93;;;;;;;15.35;88.84;94818.87;4359265;32;20264;-63
2022/09/16 07:08:58;;;;;;;2.43;2.33;;;;;;;15.25;89.17;94812.06;4403061;32;20194;-60
2022/09/16 07:11:25;;;;;;;1.50;1.50;;;;;;;15.20;89.58;94814.16;4390368;32;20294;-59
2022/09/16 07:13:50;;;;;;;3.00;2.70;;;;;;;15.21;90.69;94818.41;4378830;32;20203;-60
2022/09/16 07:16:23;;;;;;;2.03;1.93;;;;;;;15.17;90.75;94818.31;4406741;32;20180;-60
2022/09/16 07:18:55;;;;;;;2.50;2.27;;;;;;;15.18;89.94;94824.41;4390249;32;20211;-60
2022/09/16 07:21:27;;;;;;;2.50;2.40;;;;;;;15.24;89.37;94818.53;4398887;32;20188;-60
2022/09/16 07:24:03;;;;;;;2.33;2.23;;;;;;;15.23;89.41;94827.66;4419622;32;20201;-61
2022/09/16 07:26:31;;;;;;;2.70;2.50;;;;;;;15.15;89.40;94825.09;4378457;32;20192;-60
2022/09/16 07:29:11;;;;;;;2.80;2.67;;;;;;;15.18;89.02;94825.19;4362524;32;20184;-59
2022/09/16 07:31:39;;;;;;;1.93;1.83;;;;;;;15.06;90.37;94827.88;4378612;32;20221;-59
2022/09/16 07:34:07;;;;;;;2.10;1.90;;;;;;;15.09;89.37;94824.53;4418629;32;20179;-59
2022/09/16 07:36:37;;;;;;;2.53;2.43;;;;;;;14.95;90.48;94838.22;4381759;32;20218;-58
2022/09/16 07:39:04;;;;;;;2.60;2.40;;;;;;;14.95;90.27;94827.53;4378783;32;20176;-59
2022/09/16 07:41:38;;;;;;;2.57;2.47;;;;;;;15.08;89.28;94831.78;4337524;32;20309;-59
2022/09/16 07:44:07;;;;;;;2.27;2.17;;;;;;;15.12;88.72;94832.66;4377421;32;20188;-65
2022/09/16 07:46:35;;;;;;;2.60;2.50;;;;;;;14.97;89.70;94825.28;4391447;32;20199;-58
2022/09/16 07:49:02;;;;;;;2.80;2.53;;;;;;;15.11;88.84;94827.66;4386582;32;20216;-58
2022/09/16 07:51:29;;;;;;;2.17;2.07;;;;;;;15.12;89.21;94826.53;4398659;32;20226;-59
2022/09/16 07:53:58;;;;;;;4.10;2.70;;;;;;;14.98;89.89;94816.16;4373757;32;20200;-60
2022/09/16 07:56:28;;;;;;;2.57;2.47;;;;;;;15.26;90.01;94816.28;4389625;32;20277;-60
2022/09/16 07:59:05;;;;;;;2.50;2.13;;;;;;;15.24;90.25;94823.09;4350891;32;20278;-59
2022/09/16 08:01:32;;;;;;;2.27;2.17;;;;;;;15.26;90.95;94818.19;4390882;32;20255;-58
2022/09/16 08:04:00;;;;;;;3.50;2.80;;;;;;;15.46;89.62;94809.25;4404701;32;20195;-60
2022/09/16 08:06:29;;;;;;;2.53;2.33;;;;;;;15.57;89.47;94814.97;4347597;32;20451;-58
2022/09/16 08:09:01;;;;;;;2.73;2.57;;;;;;;15.64;89.06;94815.16;4363181;32;20180;-59
2022/09/16 08:11:28;;;;;;;2.73;2.50;;;;;;;15.74;88.39;94815.47;4336199;32;20206;-60
2022/09/16 08:13:58;;;;;;;2.87;2.73;;;;;;;15.60;87.64;94814.28;4365444;32;20282;-60
2022/09/16 08:16:24;;;;;;;2.87;2.70;;;;;;;15.66;88.21;94815.59;4374209;32;20255;-59
2022/09/16 08:18:53;;;;;;;2.73;2.53;;;;;;;15.47;87.25;94810.81;4389535;32;20246;-60
2022/09/16 08:21:22;;;;;;;2.03;1.93;;;;;;;15.40;87.84;94814.03;4388120;32;20241;-58
2022/09/16 08:23:49;;;;;;;2.23;2.10;;;;;;;15.50;88.60;94814.72;4332308;32;20180;-57
2022/09/16 08:26:23;;;;;;;2.93;2.60;;;;;;;15.45;88.24;94818.37;4397082;32;20288;-59
2022/09/16 08:28:50;;;;;;;2.87;2.70;;;;;;;15.51;88.51;94821.62;4380724;32;20188;-58
2022/09/16 08:31:17;;;;;;;2.60;2.50;;;;;;;15.52;88.79;94823.19;4340108;32;20199;-58
2022/09/16 08:33:47;;;;;;;2.23;2.13;;;;;;;15.56;88.98;94816.09;4360258;32;20184;-59
2022/09/16 08:36:22;;;;;;;2.23;2.03;;;;;;;15.44;88.34;94819.50;4387305;32;20205;-59
2022/09/16 08:38:51;;;;;;;3.20;2.93;;;;;;;15.56;87.84;94832.91;4374329;32;20245;-60
2022/09/16 08:41:52;;;;;;;2.73;2.20;;;;;;;15.54;88.16;94829.75;4362459;32;20199;-51
2022/09/16 08:45:02;;;;;;;1.37;1.13;;;;;;;15.94;91.97;94829.81;4383838;32;20244;-52
2022/09/16 08:48:01;;;;;;;4.93;2.80;;;;;;;16.73;95.25;94824.69;4369796;32;20270;-52
2022/09/16 08:50:39;;;;;;;3.63;1.73;;;;;;;17.01;90.22;94822.72;4376072;32;20176;-53
2022/09/16 08:53:20;;;;;;;1.93;1.83;;;;;;;17.20;88.37;94823.94;4381284;32;20188;-51
2022/09/16 08:55:50;;;;;;;2.23;2.13;;;;;;;17.63;86.56;94823.78;4388294;32;20293;-52
2022/09/16 08:58:21;;;;;;;3.20;2.30;;;;;;;17.48;83.18;94816.53;4358641;32;20192;-52
2022/09/16 09:01:15;;;;;;;3.40;2.20;;;;;;;17.64;83.73;94824.56;4370599;32;20187;-53
2022/09/16 09:03:43;;;;;;;1.80;1.70;;;;;;;17.90;83.44;94816.69;4370008;32;20207;-54
2022/09/16 09:06:47;;;;;;;2.47;2.37;;;;;;;17.99;82.30;94816.50;4390895;32;20199;-53
2022/09/16 09:09:50;;;;;;;2.97;2.77;;;;;;;17.63;80.21;94820.31;4371527;32;20274;-57
2022/09/16 09:12:43;;;;;;;3.03;2.93;;;;;;;17.14;80.58;94826.88;4395056;32;20184;-59
2022/09/16 09:15:36;;;;;;;2.40;2.20;;;;;;;16.96;80.99;94828.34;4380089;32;20425;-60
2022/09/16 09:18:45;;;;;;;2.27;2.17;;;;;;;16.34;83.74;94815.59;4370821;32;20192;-60
2022/09/16 09:21:49;;;;;;;1.30;1.30;;;;;;;16.21;85.45;94814.88;4377591;32;20223;-60
2022/09/16 09:24:51;;;;;;;4.20;2.73;;;;;;;16.07;85.32;94817.94;4374871;32;20184;-59
2022/09/16 09:27:42;;;;;;;1.87;1.83;;;;;;;16.01;85.76;94816.63;4376299;32;20188;-60
2022/09/16 09:30:20;;;;;;;1.43;1.40;;;;;;;15.97;86.49;94814.97;4360397;32;20237;-60
2022/09/16 09:33:30;;;;;;;2.60;2.10;;;;;;;15.77;87.37;94809.47;4406361;32;20188;-59
2022/09/16 09:36:21;;;;;;;3.50;3.20;;;;;;;15.82;88.65;94806.53;4386080;32;20210;-58
2022/09/16 09:38:53;;;;;;;6.63;2.93;;;;;;;15.72;88.72;94800.88;4391948;32;20184;-57
2022/09/16 09:42:02;;;;;;;2.80;2.60;;;;;;;15.53;90.52;94798.00;4408155;32;20202;-58
2022/09/16 09:45:12;;;;;;;3.07;2.90;;;;;;;15.53;91.43;94793.44;4382476;32;20704;-59
2022/09/16 09:47:58;;;;;;;2.37;2.27;;;;;;;15.59;91.21;94792.09;4346955;32;20282;-58
2022/09/16 09:50:45;;;;;;;2.53;2.43;;;;;;;15.44;91.41;94790.88;4420384;32;20172;-59
2022/09/16 09:53:35;;;;;;;3.47;3.10;;;;;;;15.45;92.16;94799.69;4392628;32;20227;-59
2022/09/16 09:56:32;;;;;;;7.10;2.53;;;;;;;15.19;93.20;94794.69;4379995;32;20195;-59
2022/09/16 09:59:40;;;;;;;2.80;2.70;;;;;;;15.19;93.31;94796.56;4381909;32;20282;-60
2022/09/16 10:02:13;;;;;;;3.87;2.97;;;;;;;15.29;93.07;94788.91;4401418;32;20188;-57
2022/09/16 10:04:42;;;;;;;3.13;2.73;;;;;;;15.15;93.40;94793.81;4384429;32;20202;-59
2022/09/16 10:07:09;;;;;;;2.87;1.87;;;;;;;15.22;93.61;94793.25;4396053;32;20264;-59
2022/09/16 10:09:57;;;;;;;2.87;2.77;;;;;;;15.28;94.17;94798.03;4394307;32;20203;-61
2022/09/16 10:12:28;;;;;;;2.80;2.63;;;;;;;15.40;94.12;94789.22;4399432;32;20237;-60
2022/09/16 10:14:53;;;;;;;1.53;1.53;;;;;;;15.36;93.96;94788.34;4379977;32;20200;-60
2022/09/16 10:17:20;;;;;;;3.33;3.13;;;;;;;15.34;94.69;94793.25;4390501;32;20228;-59
2022/09/16 10:19:56;;;;;;;2.77;2.60;;;;;;;15.33;95.90;94783.66;4372821;32;20193;-60
2022/09/16 10:22:33;;;;;;;3.07;2.67;;;;;;;15.27;96.43;94772.41;4376373;32;20214;-60
2022/09/16 10:25:25;;;;;;;3.50;3.17;;;;;;;15.16;95.90;94778.56;4380651;32;20199;-60
2022/09/16 10:28:00;;;;;;;3.17;2.97;;;;;;;15.26;95.51;94772.75;4396089;32;20193;-59
2022/09/16 10:30:42;;;;;;;8.53;3.40;;;;;;;15.28;96.13;94770.53;4372774;32;20183;-58
2022/09/16 10:33:44;;;;;;;2.40;2.30;;;;;;;15.32;96.63;94763.41;4386721;32;20199;-58
2022/09/16 10:36:20;;;;;;;2.77;2.67;;;;;;;15.12;97.14;94765.88;4396651;32;20249;-59
2022/09/16 10:38:57;;;;;;;3.20;2.83;;;;;;;15.08;97.57;94764.97;4394770;32;20198;-60
2022/09/16 10:41:31;;;;;;;3.07;2.87;;;;;;;15.13;98.16;94769.31;4399764;32;20199;-59
2022/09/16 10:44:13;;;;;;;5.53;2.63;;;;;;;15.31;97.83;94775.19;4410756;32;20188;-59
2022/09/16 10:47:02;;;;;;;3.70;3.50;;;;;;;15.32;97.14;94763.41;4380462;32;20192;-58
2022/09/16 10:49:45;;;;;;;3.40;3.10;;;;;;;15.42;97.19;94752.22;4384749;32;20225;-58
2022/09/16 10:52:42;;;;;;;3.83;3.40;;;;;;;15.38;97.10;94754.03;4395848;32;20224;-59
2022/09/16 10:55:37;;;;;;;3.43;3.13;;;;;;;15.37;97.50;94763.97;4371994;32;20215;-66
2022/09/16 10:58:20;;;;;;;3.63;3.40;;;;;;;15.01;99.00;94753.28;4360554;32;20188;-59
2022/09/16 11:01:12;;;;;;;12.00;4.00;;;;;;;15.20;98.62;94758.84;4402135;32;20184;-57
2022/09/16 11:03:57;;;;;;;3.40;3.20;;;;;;;15.20;99.09;94752.72;4343078;32;20188;-60
2022/09/16 11:07:03;;;;;;;2.50;2.40;;;;;;;15.12;98.72;94749.84;4387831;32;20208;-60
2022/09/16 11:10:16;;;;;;;3.13;2.87;;;;;;;15.17;98.59;94748.84;4389259;32;20245;-59
2022/09/16 11:13:16;;;;;;;7.13;3.17;;;;;;;14.93;95.97;94740.84;4367091;32;20196;-59
2022/09/16 11:16:07;;;;;;;1.50;1.40;;;;;;;14.58;94.21;94764.50;4402932;32;20176;-60
2022/09/16 11:19:06;;;;;;;1.90;1.80;;;;;;;14.29;92.70;94774.22;4392741;32;20185;-60
2022/09/16 11:21:55;;;;;;;2.57;2.37;;;;;;;14.18;92.28;94765.06;4387343;32;20196;-59
2022/09/16 11:24:58;;;;;;;2.17;2.07;;;;;;;13.89;93.50;94765.19;4381121;32;20254;-61
2022/09/16 11:27:45;;;;;;;2.03;1.93;;;;;;;13.74;93.26;94786.00;4396969;32;20244;-60
2022/09/16 11:30:13;;;;;;;3.27;2.07;;;;;;;13.62;94.45;94763.84;4380213;32;20250;-58
2022/09/16 11:33:15;;;;;;;5.13;2.07;;;;;;;13.44;95.51;94773.88;4387667;32;20192;-58
2022/09/16 11:36:17;;;;;;;1.37;1.37;;;;;;;13.53;96.25;94779.91;4367147;32;20203;-59
2022/09/16 11:39:26;;;;;;;1.63;1.53;;;;;;;13.45;95.31;94778.09;4397627;32;20188;-59
2022/09/16 11:42:24;;;;;;;1.30;1.30;;;;;;;13.38;96.03;94772.47;4368394;32;20193;-58
2022/09/16 11:45:44;;;;;;;1.20;1.20;;;;;;;13.37;97.87;94774.38;4392567;32;20196;-60
2022/09/16 11:48:43;;;;;;;1.60;1.50;;;;;;;13.36;95.76;94796.00;4311496;32;20208;-57
2022/09/16 11:51:55;;;;;;;1.93;1.83;;;;;;;13.32;94.94;94803.06;4333279;32;20187;-59
2022/09/16 11:54:56;;;;;;;1.23;1.23;;;;;;;13.13;96.15;94813.34;4331539;32;20221;-57
2022/09/16 11:57:28;;;;;;;0.77;0.77;;;;;;;12.97;97.61;94818.44;4310352;33;20189;-58
2022/09/16 11:59:58;;;;;;;0.60;0.60;;;;;;;12.64;95.67;94828.91;4302108;33;20194;-58
2022/09/16 12:02:47;;;;;;;0.77;0.77;;;;;;;12.60;94.53;94817.34;4297416;33;20237;-58
2022/09/16 12:06:08;;;;;;;1.30;1.30;;;;;;;12.53;96.82;94828.44;4248416;33;20206;-60
2022/09/16 12:08:59;;;;;;;0.93;0.93;;;;;;;12.68;97.50;94829.81;4248560;33;20198;-59
2022/09/16 12:11:51;;;;;;;2.27;1.27;;;;;;;12.67;97.48;94826.41;4252094;33;20231;-60
2022/09/16 12:14:42;;;;;;;1.50;1.40;;;;;;;12.67;98.38;94820.28;4260276;33;20191;-62
2022/09/16 12:17:19;;;;;;;2.63;2.03;;;;;;;12.71;97.63;94823.84;4302911;32;20207;-59
2022/09/16 12:20:02;;;;;;;2.00;1.90;;;;;;;12.69;96.82;94820.72;4347222;32;20198;-58
2022/09/16 12:22:54;;;;;;;2.20;1.93;;;;;;;12.90;96.14;94815.47;4355751;32;20264;-60
2022/09/16 12:25:37;;;;;;;2.93;1.67;;;;;;;12.95;96.53;94832.06;4331436;32;20214;-61
2022/09/16 12:28:28;;;;;;;1.20;1.20;;;;;;;12.92;97.01;94837.25;4337567;32;20309;-60